Time;durP1;ratioP1;P1;durP2;ratioP2;P2;SDS_P1;SDS_P2;PMS_P1;PMS_P2;Temp;Humidity;BMP_temperature;BMP_pressure;BME280_temperature;BME280_humidity;BME280_pressure;Samples;Min_cycle;Max_cycle;Signal;HPM_P1;HPM_P2
2023/05/15 00:01:06;;;;;;;;;;;;;;;10.42;100.00;95976.63;4964786;28;19958;-81
2023/05/15 00:03:33;;;;;;;;;;;;;;;10.42;100.00;95981.22;4966915;28;19955;-81
2023/05/15 00:05:59;;;;;;;;;;;;;;;10.39;100.00;95968.19;4965956;28;20056;-81
2023/05/15 00:08:26;;;;;;;;;;;;;;;10.35;100.00;95975.13;4968455;28;19951;-81
2023/05/15 00:10:53;;;;;;;;;;;;;;;10.27;100.00;95970.09;4966196;28;19954;-82
2023/05/15 00:13:21;;;;;;;;;;;;;;;10.22;100.00;95976.19;4964023;28;19951;-81
2023/05/15 00:15:48;;;;;;;;;;;;;;;10.17;100.00;95963.44;4959185;28;19946;-81
2023/05/15 00:18:14;;;;;;;;;;;;;;;10.18;100.00;95964.25;4967189;28;19967;-82
2023/05/15 00:20:41;;;;;;;;;;;;;;;10.20;100.00;95973.75;4963107;28;19948;-82
2023/05/15 00:23:08;;;;;;;;;;;;;;;10.24;100.00;95963.28;4965968;28;19949;-82
2023/05/15 00:25:35;;;;;;;;;;;;;;;10.24;100.00;95966.81;4979266;28;19961;-81
2023/05/15 00:28:02;;;;;;;;;;;;;;;10.26;100.00;95965.75;4968298;28;19959;-82
2023/05/15 00:30:30;;;;;;;;;;;;;;;10.25;100.00;95967.63;4980982;28;20017;-81
2023/05/15 00:32:57;;;;;;;;;;;;;;;10.20;100.00;95967.53;4967108;28;19955;-82
2023/05/15 00:35:24;;;;;;;;;;;;;;;10.16;100.00;95967.16;4970377;28;19956;-81
2023/05/15 00:37:50;;;;;;;;;;;;;;;10.17;100.00;95962.56;4968110;28;19955;-81
2023/05/15 00:40:20;;;;;;;;;;;;;;;10.19;100.00;95957.78;4968644;28;19947;-81
2023/05/15 00:42:47;;;;;;;;;;;;;;;10.20;100.00;95962.13;4966826;28;19950;-82
2023/05/15 00:45:14;;;;;;;;;;;;;;;10.15;100.00;95957.41;4964014;28;19965;-82
2023/05/15 00:47:43;;;;;;;;;;;;;;;10.12;100.00;95963.25;4970520;28;20002;-82
2023/05/15 00:50:11;;;;;;;;;;;;;;;10.15;100.00;95962.81;4967046;28;20053;-81
2023/05/15 00:52:38;;;;;;;;;;;;;;;10.19;100.00;95957.78;4986454;28;19952;-82
2023/05/15 00:55:06;;;;;;;;;;;;;;;10.20;100.00;95960.25;4981139;28;19945;-82
2023/05/15 00:57:33;;;;;;;;;;;;;;;10.20;100.00;95956.75;4966488;28;19994;-82
2023/05/15 01:00:03;;;;;;;;;;;;;;;10.15;100.00;95948.50;4966654;28;19947;-82
2023/05/15 01:02:30;;;;;;;;;;;;;;;10.11;100.00;95955.44;4982546;28;20000;-82
2023/05/15 01:04:58;;;;;;;;;;;;;;;10.13;100.00;95956.00;4961917;28;19959;-82
2023/05/15 01:07:25;;;;;;;;;;;;;;;10.15;100.00;95952.00;4966240;28;20035;-81
2023/05/15 01:09:53;;;;;;;;;;;;;;;10.17;100.00;95958.03;4964442;28;19978;-82
2023/05/15 01:12:23;;;;;;;;;;;;;;;10.19;100.00;95955.94;4957637;28;19956;-82
2023/05/15 01:14:50;;;;;;;;;;;;;;;10.16;100.00;95952.84;4958795;28;19948;-82
2023/05/15 01:17:16;;;;;;;;;;;;;;;10.12;100.00;95954.38;4967112;28;19968;-82
2023/05/15 01:19:44;;;;;;;;;;;;;;;10.12;100.00;95965.16;4966478;28;19963;-81
2023/05/15 01:22:19;;;;;;;;;;;;;;;10.11;100.00;95955.44;4965305;28;19971;-82
2023/05/15 01:25:02;;;;;;;;;;;;;;;10.13;100.00;95956.81;4966540;28;19954;-82
2023/05/15 01:27:35;;;;;;;;;;;;;;;10.15;100.00;95959.28;4969136;28;20001;-82
2023/05/15 01:30:07;;;;;;;;;;;;;;;10.16;100.00;95950.13;4968476;28;19946;-82
2023/05/15 01:32:51;;;;;;;;;;;;;;;10.19;100.00;95952.41;4963595;28;19953;-82
2023/05/15 01:35:21;;;;;;;;;;;;;;;10.21;100.00;95952.97;4959808;28;19954;-82
2023/05/15 01:37:53;;;;;;;;;;;;;;;10.22;100.00;95954.59;4966445;28;20041;-81
2023/05/15 01:40:25;;;;;;;;;;;;;;;10.22;100.00;95954.59;4981501;28;19992;-81
2023/05/15 01:42:54;;;;;;;;;;;;;;;10.22;100.00;95950.03;4969027;28;19958;-82
2023/05/15 01:45:21;;;;;;;;;;;;;;;10.20;100.00;95957.56;4963592;28;20012;-81
2023/05/15 01:47:49;;;;;;;;;;;;;;;10.22;100.00;95960.00;4961113;28;20052;-82
2023/05/15 01:50:17;;;;;;;;;;;;;;;10.22;100.00;95960.81;4966728;28;19946;-81
2023/05/15 01:52:47;;;;;;;;;;;;;;;10.22;100.00;95957.31;4969208;28;20035;-82
2023/05/15 01:55:14;;;;;;;;;;;;;;;10.22;100.00;95954.59;4962369;28;20050;-82
2023/05/15 01:57:41;;;;;;;;;;;;;;;10.20;100.00;95954.88;4965917;28;19949;-82
2023/05/15 02:00:11;;;;;;;;;;;;;;;10.20;100.00;95956.75;4968776;28;20038;-81
2023/05/15 02:02:41;;;;;;;;;;;;;;;10.19;100.00;95950.53;4966461;28;19972;-82
2023/05/15 02:05:08;;;;;;;;;;;;;;;10.19;100.00;95955.09;4958229;28;20017;-82
2023/05/15 02:07:34;;;;;;;;;;;;;;;10.15;100.00;95957.41;4968459;28;19942;-82
2023/05/15 02:10:02;;;;;;;;;;;;;;;10.15;100.00;95959.28;4963695;28;19946;-82
2023/05/15 02:12:30;;;;;;;;;;;;;;;10.16;100.00;95948.25;4966256;28;19950;-81
2023/05/15 02:14:58;;;;;;;;;;;;;;;10.14;100.00;95944.97;4968164;28;20044;-81
2023/05/15 02:17:28;;;;;;;;;;;;;;;10.09;100.00;95954.84;4966439;28;19967;-82
2023/05/15 02:19:55;;;;;;;;;;;;;;;10.05;100.00;95953.66;4967991;28;19974;-82
2023/05/15 02:22:21;;;;;;;;;;;;;;;10.01;100.00;95949.81;4982819;28;19950;-82
2023/05/15 02:24:48;;;;;;;;;;;;;;;10.04;100.00;95957.41;4966839;28;19953;-81
2023/05/15 02:27:20;;;;;;;;;;;;;;;10.01;100.00;95947.13;4964221;28;20035;-82
2023/05/15 02:29:55;;;;;;;;;;;;;;;10.07;100.00;95951.56;4961809;28;19958;-82
2023/05/15 02:32:27;;;;;;;;;;;;;;;10.10;100.00;95954.63;4969377;28;19950;-81
2023/05/15 02:35:04;;;;;;;;;;;;;;;10.13;100.00;95946.03;4979005;28;19941;-81
2023/05/15 02:37:31;;;;;;;;;;;;;;;10.12;100.00;95949.78;4966228;28;19988;-82
2023/05/15 02:39:59;;;;;;;;;;;;;;;10.08;100.00;95943.22;4963883;28;19946;-82
2023/05/15 02:42:26;;;;;;;;;;;;;;;10.09;100.00;95944.06;4975736;28;19973;-82
2023/05/15 02:44:54;;;;;;;;;;;;;;;10.04;100.00;95943.94;4964006;28;19955;-81
2023/05/15 02:47:22;;;;;;;;;;;;;;;10.01;100.00;95947.13;4963132;28;19967;-81
2023/05/15 02:49:49;;;;;;;;;;;;;;;10.02;100.00;95941.50;4970192;28;19946;-82
2023/05/15 02:52:17;;;;;;;;;;;;;;;10.04;100.00;95942.03;4957911;28;19950;-81
2023/05/15 02:54:44;;;;;;;;;;;;;;;10.08;100.00;95942.41;4966429;28;19945;-82
2023/05/15 02:57:11;;;;;;;;;;;;;;;10.10;100.00;95943.00;4972776;28;19954;-81
2023/05/15 02:59:37;;;;;;;;;;;;;;;10.05;100.00;95940.16;4969473;28;19974;-81
2023/05/15 03:02:04;;;;;;;;;;;;;;;10.00;100.00;95929.28;4970180;28;20035;-81
2023/05/15 03:04:31;;;;;;;;;;;;;;;9.96;100.00;95933.50;4968582;28;19948;-81
2023/05/15 03:06:58;;;;;;;;;;;;;;;9.90;100.00;95931.75;4971604;28;20062;-81
2023/05/15 03:09:27;;;;;;;;;;;;;;;9.82;100.00;95933.75;4960135;28;19945;-82
2023/05/15 03:11:53;;;;;;;;;;;;;;;9.84;100.00;95934.34;4980790;28;20039;-81
2023/05/15 03:14:20;;;;;;;;;;;;;;;9.86;100.00;95934.13;4972310;28;19967;-82
2023/05/15 03:16:47;;;;;;;;;;;;;;;9.85;100.00;95938.69;4988327;28;19966;-82
2023/05/15 03:19:14;;;;;;;;;;;;;;;9.90;100.00;95935.28;4970018;28;19966;-82
2023/05/15 03:21:40;;;;;;;;;;;;;;;9.89;100.00;95939.03;4967126;28;19952;-82
2023/05/15 03:24:07;;;;;;;;;;;;;;;9.86;100.00;95940.34;4965337;28;19955;-82
2023/05/15 03:26:35;;;;;;;;;;;;;;;9.83;100.00;95940.78;4968595;28;19961;-82
2023/05/15 03:29:02;;;;;;;;;;;;;;;9.79;100.00;95939.59;4967256;28;19941;-81
2023/05/15 03:31:29;;;;;;;;;;;;;;;9.75;100.00;95938.47;4970396;28;19984;-81
2023/05/15 03:33:56;;;;;;;;;;;;;;;9.76;100.00;95934.72;4969568;28;19954;-81
2023/05/15 03:36:22;;;;;;;;;;;;;;;9.78;100.00;95934.47;4966616;28;19946;-82
2023/05/15 03:38:49;;;;;;;;;;;;;;;9.86;100.00;95932.25;4968439;28;19965;-81
2023/05/15 03:41:16;;;;;;;;;;;;;;;9.85;100.00;95937.88;4970910;28;19961;-80
2023/05/15 03:43:44;;;;;;;;;;;;;;;9.85;100.00;95938.69;4985964;28;20036;-81
2023/05/15 03:46:11;;;;;;;;;;;;;;;9.86;100.00;95936.81;4967535;28;19964;-81
2023/05/15 03:48:40;;;;;;;;;;;;;;;9.85;100.00;95929.78;4968025;28;19948;-81
2023/05/15 03:51:07;;;;;;;;;;;;;;;9.82;100.00;95933.75;4971156;28;19948;-81
2023/05/15 03:53:34;;;;;;;;;;;;;;;9.84;100.00;95937.03;4969617;28;19946;-81
2023/05/15 03:56:02;;;;;;;;;;;;;;;9.85;100.00;95944.09;4971633;28;20135;-81
2023/05/15 03:58:30;;;;;;;;;;;;;;;9.87;100.00;95944.66;4983031;28;20023;-81
2023/05/15 04:00:58;;;;;;;;;;;;;;;9.93;100.00;95939.38;4953642;28;20034;-81
2023/05/15 04:03:25;;;;;;;;;;;;;;;9.95;100.00;95940.78;4964037;28;19963;-81
2023/05/15 04:05:52;;;;;;;;;;;;;;;9.95;100.00;95939.97;4968887;28;19946;-81
2023/05/15 04:08:19;;;;;;;;;;;;;;;9.99;100.00;95939.25;4966031;28;19955;-81
2023/05/15 04:10:45;;;;;;;;;;;;;;;9.97;100.00;95937.84;4968781;28;19941;-82
2023/05/15 04:13:12;;;;;;;;;;;;;;;9.93;100.00;95936.69;4983560;28;19948;-81
2023/05/15 04:15:40;;;;;;;;;;;;;;;9.91;100.00;95934.22;4968668;28;20048;-81
2023/05/15 04:18:08;;;;;;;;;;;;;;;9.92;100.00;95937.75;4964977;28;19968;-81
2023/05/15 04:20:35;;;;;;;;;;;;;;;9.92;100.00;95943.13;4968389;28;19948;-81
2023/05/15 04:23:02;;;;;;;;;;;;;;;9.95;100.00;95942.66;4985942;28;19971;-82
2023/05/15 04:25:30;;;;;;;;;;;;;;;9.98;100.00;95944.88;4972333;28;20046;-82
2023/05/15 04:27:57;;;;;;;;;;;;;;;9.97;100.00;95941.34;4969888;28;20001;-82
2023/05/15 04:30:24;;;;;;;;;;;;;;;9.94;100.00;95938.34;4964178;28;19991;-82
2023/05/15 04:32:51;;;;;;;;;;;;;;;9.96;100.00;95942.41;4967210;28;19959;-82
2023/05/15 04:35:20;;;;;;;;;;;;;;;10.00;100.00;95935.50;4968814;28;19946;-82
2023/05/15 04:37:46;;;;;;;;;;;;;;;10.03;100.00;95936.91;4970882;28;19951;-82
2023/05/15 04:40:15;;;;;;;;;;;;;;;9.97;100.00;95938.66;4967770;28;20007;-82
2023/05/15 04:42:41;;;;;;;;;;;;;;;9.97;100.00;95935.13;4962630;28;19948;-82
2023/05/15 04:45:09;;;;;;;;;;;;;;;9.99;100.00;95931.16;4961461;28;19957;-82
2023/05/15 04:47:35;;;;;;;;;;;;;;;10.01;100.00;95933.63;4969488;28;20057;-81
2023/05/15 04:50:02;;;;;;;;;;;;;;;10.08;100.00;95942.41;4966024;28;19944;-82
2023/05/15 04:52:31;;;;;;;;;;;;;;;10.12;100.00;95948.97;4961085;28;19952;-81
2023/05/15 04:54:57;;;;;;;;;;;;;;;10.15;100.00;95951.19;4965205;28;19946;-82
2023/05/15 04:57:24;;;;;;;;;;;;;;;10.21;100.00;95963.75;4967308;28;19971;-81
2023/05/15 04:59:51;;;;;;;;;;;;;;;10.28;100.00;95967.16;4969182;28;20031;-82
2023/05/15 05:02:20;;;;;;;;;;;;;;;10.23;100.00;95973.25;4966913;28;19955;-82
2023/05/15 05:04:46;;;;;;;;;;;;;;;10.25;100.00;95986.53;4968675;28;19943;-82
2023/05/15 05:07:13;;;;;;;;;;;;;;;10.20;100.00;95978.34;4960790;28;19965;-81
2023/05/15 05:09:41;;;;;;;;;;;;;;;10.20;100.00;95987.25;4964906;28;19951;-82
2023/05/15 05:12:09;;;;;;;;;;;;;;;10.17;100.00;95981.47;4964002;28;19951;-82
2023/05/15 05:14:35;;;;;;;;;;;;;;;10.07;100.00;95982.06;4968251;28;19946;-82
2023/05/15 05:17:03;;;;;;;;;;;;;;;10.14;100.00;95990.00;4958641;28;19964;-82
2023/05/15 05:19:30;;;;;;;;;;;;;;;10.14;100.00;95996.22;4961784;28;19962;-82
2023/05/15 05:22:00;;;;;;;;;;;;;;;10.16;100.00;95991.44;4959336;28;20063;-82
2023/05/15 05:24:27;;;;;;;;;;;;;;;10.17;100.00;96005.75;4967056;28;20038;-82
2023/05/15 05:26:56;;;;;;;;;;;;;;;10.12;100.00;96013.72;4966268;28;19966;-81
2023/05/15 05:29:23;;;;;;;;;;;;;;;10.05;100.00;96013.00;4967246;28;19951;-82
2023/05/15 05:31:50;;;;;;;;;;;;;;;10.02;100.00;96018.88;4968431;28;19941;-82
2023/05/15 05:34:17;;;;;;;;;;;;;;;10.04;100.00;96016.75;4964459;28;19986;-83
2023/05/15 05:36:44;;;;;;;;;;;;;;;10.00;100.00;96021.00;4961276;28;19956;-83
2023/05/15 05:39:11;;;;;;;;;;;;;;;9.98;100.00;96023.09;4967431;28;19952;-82
2023/05/15 05:41:38;;;;;;;;;;;;;;;9.94;100.00;96021.94;4980219;28;19947;-83
2023/05/15 05:44:06;;;;;;;;;;;;;;;9.92;100.00;96022.16;4973469;28;19945;-82
2023/05/15 05:46:34;;;;;;;;;;;;;;;9.91;100.00;96025.09;4959469;28;20008;-83
2023/05/15 05:49:01;;;;;;;;;;;;;;;9.92;100.00;96024.84;4959258;28;19949;-82
2023/05/15 05:51:28;;;;;;;;;;;;;;;9.95;100.00;96029.81;4964087;28;19947;-82
2023/05/15 05:53:55;;;;;;;;;;;;;;;9.98;100.00;96032.00;4966251;28;19947;-82
2023/05/15 05:56:22;;;;;;;;;;;;;;;9.97;100.00;96026.84;4964722;28;19948;-83
2023/05/15 05:58:49;;;;;;;;;;;;;;;9.98;100.00;96029.31;4981686;28;20005;-83
2023/05/15 06:01:17;;;;;;;;;;;;;;;9.97;100.00;96035.75;4966412;28;19959;-83
2023/05/15 06:03:43;;;;;;;;;;;;;;;9.97;100.00;96038.44;4967430;28;19952;-82
2023/05/15 06:06:11;;;;;;;;;;;;;;;9.95;100.00;96034.38;4964828;28;20004;-83
2023/05/15 06:08:37;;;;;;;;;;;;;;;9.95;100.00;96034.38;4968676;28;19983;-83
2023/05/15 06:11:05;;;;;;;;;;;;;;;9.95;100.00;96032.50;4963326;28;19948;-83
2023/05/15 06:13:31;;;;;;;;;;;;;;;9.96;100.00;96031.41;4959474;28;19965;-82
2023/05/15 06:15:58;;;;;;;;;;;;;;;10.00;100.00;96029.91;4965129;28;19951;-83
2023/05/15 06:18:26;;;;;;;;;;;;;;;10.01;100.00;96022.63;4967592;28;19973;-83
2023/05/15 06:20:53;;;;;;;;;;;;;;;9.99;100.00;96027.44;4980359;28;19989;-82
2023/05/15 06:23:20;;;;;;;;;;;;;;;9.99;100.00;96030.97;4969520;28;19943;-83
2023/05/15 06:25:46;;;;;;;;;;;;;;;10.00;100.00;96035.31;4978665;28;19957;-82
2023/05/15 06:28:13;;;;;;;;;;;;;;;10.00;100.00;96031.78;4966401;28;19968;-83
2023/05/15 06:30:40;;;;;;;;;;;;;;;9.99;100.00;96013.94;4965075;28;19955;-83
2023/05/15 06:33:07;;;;;;;;;;;;;;;10.02;100.00;96013.50;4969759;28;19946;-83
2023/05/15 06:35:36;;;;;;;;;;;;;;;9.99;100.00;96019.34;4969852;28;19947;-82
2023/05/15 06:38:03;;;;;;;;;;;;;;;9.96;100.00;96025.19;4974242;28;19943;-82
2023/05/15 06:40:30;;;;;;;;;;;;;;;10.00;100.00;96026.38;4968797;28;19964;-83
2023/05/15 06:42:57;;;;;;;;;;;;;;;10.08;100.00;96023.34;4966684;28;19954;-82
2023/05/15 06:45:25;;;;;;;;;;;;;;;10.07;100.00;96032.47;4968221;28;19960;-82
2023/05/15 06:47:52;;;;;;;;;;;;;;;10.13;100.00;96032.34;4986155;28;20012;-83
2023/05/15 06:50:19;;;;;;;;;;;;;;;10.13;100.00;96020.75;4967925;28;19955;-83
2023/05/15 06:52:48;;;;;;;;;;;;;;;10.21;100.00;96023.94;4988041;28;19959;-82
2023/05/15 06:55:15;;;;;;;;;;;;;;;10.27;100.00;96022.19;4967526;28;19948;-82
2023/05/15 06:57:41;;;;;;;;;;;;;;;10.24;100.00;96017.25;4981931;28;19954;-82
2023/05/15 07:00:09;;;;;;;;;;;;;;;10.24;100.00;96012.69;4969981;28;19959;-82
2023/05/15 07:02:35;;;;;;;;;;;;;;;10.21;100.00;96020.41;4982921;28;20040;-82
2023/05/15 07:05:02;;;;;;;;;;;;;;;10.18;100.00;96016.34;4965732;28;19945;-82
2023/05/15 07:07:29;;;;;;;;;;;;;;;10.18;100.00;96016.34;4967909;28;19998;-82
2023/05/15 07:09:59;;;;;;;;;;;;;;;10.24;100.00;96017.25;4968177;28;19955;-82
2023/05/15 07:12:26;;;;;;;;;;;;;;;10.26;100.00;96015.16;4968773;28;19946;-82
2023/05/15 07:14:52;;;;;;;;;;;;;;;10.25;100.00;96018.91;4969452;28;19993;-82
2023/05/15 07:17:19;;;;;;;;;;;;;;;10.30;100.00;96023.56;4988105;28;19966;-82
2023/05/15 07:19:46;;;;;;;;;;;;;;;10.30;100.00;96015.47;4961459;28;19973;-82
2023/05/15 07:22:13;;;;;;;;;;;;;;;10.33;100.00;96015.03;4966310;28;19957;-82
2023/05/15 07:24:40;;;;;;;;;;;;;;;10.35;100.00;96010.22;4962438;28;19955;-82
2023/05/15 07:27:08;;;;;;;;;;;;;;;10.48;100.00;96013.47;4969399;28;19968;-82
2023/05/15 07:29:35;;;;;;;;;;;;;;;10.44;100.00;96006.91;4973547;28;20000;-82
2023/05/15 07:32:02;;;;;;;;;;;;;;;10.41;100.00;96006.56;4988726;28;19949;-81
2023/05/15 07:34:28;;;;;;;;;;;;;;;10.50;100.00;96008.66;4969083;28;19997;-80
2023/05/15 07:36:55;;;;;;;;;;;;;;;10.59;100.00;96014.50;4969900;28;19947;-81
2023/05/15 07:39:22;;;;;;;;;;;;;;;10.73;100.00;96009.66;4968986;28;19955;-82
2023/05/15 07:41:49;;;;;;;;;;;;;;;10.82;100.00;96003.63;4970080;28;20120;-81
2023/05/15 07:44:17;;;;;;;;;;;;;;;10.96;100.00;95993.38;4972010;28;19947;-82
2023/05/15 07:46:44;;;;;;;;;;;;;;;11.11;100.00;95999.06;4970318;28;19957;-82
2023/05/15 07:49:11;;;;;;;;;;;;;;;11.13;100.00;96004.22;4979869;28;19954;-82
2023/05/15 07:51:39;;;;;;;;;;;;;;;11.23;100.00;95996.28;4970962;28;19946;-82
2023/05/15 07:54:06;;;;;;;;;;;;;;;11.24;100.00;96000.63;4966349;28;19947;-82
2023/05/15 07:56:32;;;;;;;;;;;;;;;11.16;100.00;95999.16;4970764;28;19948;-82
2023/05/15 07:59:00;;;;;;;;;;;;;;;11.16;100.00;95999.16;4971520;28;19949;-82
2023/05/15 08:01:28;;;;;;;;;;;;;;;11.26;100.00;95991.22;4967394;28;19951;-82
2023/05/15 08:03:56;;;;;;;;;;;;;;;11.41;100.00;95989.84;4965597;28;19947;-82
2023/05/15 08:06:23;;;;;;;;;;;;;;;11.53;100.00;95987.91;4978590;28;19951;-82
2023/05/15 08:08:53;;;;;;;;;;;;;;;11.64;100.00;95985.13;4965450;28;19966;-82
2023/05/15 08:11:20;;;;;;;;;;;;;;;11.77;100.00;95984.00;4963615;28;19948;-83
2023/05/15 08:13:47;;;;;;;;;;;;;;;11.79;100.00;95979.19;4972396;28;20032;-82
2023/05/15 08:16:14;;;;;;;;;;;;;;;11.88;100.00;95977.69;4968770;28;19956;-82
2023/05/15 08:18:42;;;;;;;;;;;;;;;11.92;100.00;95981.53;4970862;28;19972;-83
2023/05/15 08:21:10;;;;;;;;;;;;;;;12.02;100.00;95975.47;4983918;28;19980;-82
2023/05/15 08:23:36;;;;;;;;;;;;;;;12.07;100.00;95979.06;4964452;28;20002;-83
2023/05/15 08:26:03;;;;;;;;;;;;;;;12.10;100.00;95977.75;4971237;28;19955;-82
2023/05/15 08:28:30;;;;;;;;;;;;;;;12.17;100.00;95980.25;4963519;28;19966;-82
2023/05/15 08:30:57;;;;;;;;;;;;;;;12.27;100.00;95981.22;4967281;28;19947;-82
2023/05/15 08:33:24;;;;;;;;;;;;;;;12.29;100.00;95986.41;4969417;28;19948;-82
2023/05/15 08:35:52;;;;;;;;;;;;;;;12.46;100.00;95988.00;4981134;28;19953;-82
2023/05/15 08:38:19;;;;;;;;;;;;;;;12.48;100.00;95987.75;4966855;28;19947;-82
2023/05/15 08:40:47;;;;;;;;;;;;;;;12.49;100.00;95995.63;4969331;28;19951;-82
2023/05/15 08:43:16;;;;;;;;;;;;;;;12.52;100.00;95988.88;4983377;28;19952;-82
2023/05/15 08:45:43;;;;;;;;;;;;;;;12.67;100.00;95988.28;4966508;28;19958;-82
2023/05/15 08:48:11;;;;;;;;;;;;;;;12.79;100.00;95980.81;4967876;28;20012;-82
2023/05/15 08:50:38;;;;;;;;;;;;;;;12.86;100.00;95987.69;4980207;28;19999;-82
2023/05/15 08:53:08;;;;;;;;;;;;;;;12.80;100.00;95996.81;4971460;28;19944;-82
2023/05/15 08:55:34;;;;;;;;;;;;;;;12.79;100.00;95995.19;4970232;28;19969;-82
2023/05/15 08:58:02;;;;;;;;;;;;;;;12.79;100.00;95992.47;4965810;28;19950;-82
2023/05/15 09:00:29;;;;;;;;;;;;;;;12.88;100.00;95996.38;4968332;28;19962;-82
2023/05/15 09:02:55;;;;;;;;;;;;;;;12.86;100.00;95993.09;4985231;28;20018;-82
2023/05/15 09:05:22;;;;;;;;;;;;;;;12.81;100.00;95995.75;4970560;28;19952;-82
2023/05/15 09:07:51;;;;;;;;;;;;;;;12.80;100.00;95994.13;4966472;28;19961;-82
2023/05/15 09:10:19;;;;;;;;;;;;;;;12.79;100.00;95991.66;4967088;28;19958;-81
2023/05/15 09:12:45;;;;;;;;;;;;;;;12.72;100.00;95988.31;4967928;28;19968;-82
2023/05/15 09:15:14;;;;;;;;;;;;;;;12.65;100.00;95985.00;4967105;28;19957;-82
2023/05/15 09:17:42;;;;;;;;;;;;;;;12.69;100.00;95986.09;4967494;28;19959;-82
2023/05/15 09:20:24;;;;;;;;;;;;;;;12.72;100.00;95985.63;4970442;28;19993;-82
2023/05/15 09:22:50;;;;;;;;;;;;;;;12.63;100.00;95987.94;4962371;28;20017;-82
2023/05/15 09:25:32;;;;;;;;;;;;;;;12.61;100.00;95979.25;4967162;28;19950;-82
2023/05/15 09:27:59;;;;;;;;;;;;;;;12.66;100.00;95986.63;4963196;28;20040;-83
2023/05/15 09:30:26;;;;;;;;;;;;;;;12.59;100.00;95981.38;4970264;28;20007;-82
2023/05/15 09:32:53;;;;;;;;;;;;;;;12.55;100.00;95985.69;4977156;28;19946;-82
2023/05/15 09:35:33;;;;;;;;;;;;;;;12.43;100.00;95977.66;4977541;28;19946;-82
2023/05/15 09:38:00;;;;;;;;;;;;;;;12.23;100.00;95973.88;4969491;28;19954;-82
2023/05/15 09:40:32;;;;;;;;;;;;;;;12.31;100.00;95978.84;4978867;28;20038;-82
2023/05/15 09:42:59;;;;;;;;;;;;;;;12.34;100.00;95972.94;4973527;28;19947;-82
2023/05/15 09:45:28;;;;;;;;;;;;;;;12.30;100.00;95980.75;4970186;28;19956;-82
2023/05/15 09:47:56;;;;;;;;;;;;;;;12.30;100.00;95974.50;4964004;28;19985;-81
2023/05/15 09:50:24;;;;;;;;;;;;;;;12.36;100.00;95976.22;4964949;28;20036;-82
2023/05/15 09:52:51;;;;;;;;;;;;;;;12.29;100.00;95978.28;4962171;28;20187;-83
2023/05/15 09:55:19;;;;;;;;;;;;;;;12.28;100.00;95971.22;4967306;28;19952;-82
2023/05/15 09:58:03;;;;;;;;;;;;;;;12.26;100.00;95976.06;4965757;28;19946;-82
2023/05/15 10:00:30;;;;;;;;;;;;;;;12.35;100.00;95971.84;4959123;28;19988;-82
2023/05/15 10:02:58;;;;;;;;;;;;;;;12.42;100.00;95972.50;4966625;28;20043;-82
2023/05/15 10:05:26;;;;;;;;;;;;;;;12.65;100.00;95964.16;4968766;28;20040;-82
2023/05/15 10:07:54;;;;;;;;;;;;;;;12.62;100.00;95963.81;4965838;28;19962;-82
2023/05/15 10:10:21;;;;;;;;;;;;;;;12.62;100.00;95961.09;4970526;28;19950;-82
2023/05/15 10:12:49;;;;;;;;;;;;;;;12.65;100.00;95960.63;4967593;28;19948;-83
2023/05/15 10:15:17;;;;;;;;;;;;;;;12.61;100.00;95963.00;4958950;28;20014;-83
2023/05/15 10:17:47;;;;;;;;;;;;;;;12.67;100.00;95956.59;4966015;28;19992;-82
2023/05/15 10:20:14;;;;;;;;;;;;;;;12.79;100.00;95965.38;4964655;28;20225;-83
2023/05/15 10:22:41;;;;;;;;;;;;;;;12.92;100.00;95957.94;4963282;28;20036;-83
2023/05/15 10:25:09;;;;;;;;;;;;;;;13.06;100.00;95959.19;4964887;28;20050;-82
2023/05/15 10:27:39;;;;;;;;;;;;;;;13.17;100.00;95958.25;4967673;28;19950;-83
2023/05/15 10:30:07;;;;;;;;;;;;;;;13.24;100.00;95954.25;4967135;28;19951;-83
2023/05/15 10:32:36;;;;;;;;;;;;;;;13.23;100.00;95951.78;4962678;28;19952;-83
2023/05/15 10:35:04;;;;;;;;;;;;;;;13.24;100.00;95950.72;4966229;28;20001;-82
2023/05/15 10:37:32;;;;;;;;;;;;;;;13.19;100.00;95954.19;4975102;28;19945;-83
2023/05/15 10:40:00;;;;;;;;;;;;;;;13.08;100.00;95952.44;4964284;28;20038;-82
2023/05/15 10:42:28;;;;;;;;;;;;;;;12.95;100.00;95946.59;4968382;28;19947;-83
2023/05/15 10:44:58;;;;;;;;;;;;;;;12.93;100.00;95946.03;4969060;28;19991;-82
2023/05/15 10:47:26;;;;;;;;;;;;;;;12.83;100.00;95950.28;4974538;28;19941;-83
2023/05/15 10:49:54;;;;;;;;;;;;;;;12.86;100.00;95943.50;4966730;28;19965;-82
2023/05/15 10:52:21;;;;;;;;;;;;;;;12.93;100.00;95944.13;4979120;28;19975;-83
2023/05/15 10:54:48;;;;;;;;;;;;;;;13.06;100.00;95941.03;4966124;28;19950;-82
2023/05/15 10:57:15;;;;;;;;;;;;;;;13.08;100.00;95946.19;4964660;28;19948;-82
2023/05/15 10:59:42;;;;;;;;;;;;;;;12.99;100.00;95942.31;4959955;28;19956;-82
2023/05/15 11:02:19;;;;;;;;;;;;;;;12.96;100.00;95937.38;4964508;28;19951;-82
2023/05/15 11:04:47;;;;;;;;;;;;;;;12.91;100.00;95946.28;4964614;28;19945;-82
2023/05/15 11:07:16;;;;;;;;;;;;;;;12.95;100.00;95938.44;4970334;28;19953;-83
2023/05/15 11:09:43;;;;;;;;;;;;;;;13.00;100.00;95942.06;4970170;28;19985;-82
2023/05/15 11:12:11;;;;;;;;;;;;;;;13.03;100.00;95927.16;4970128;28;19941;-82
2023/05/15 11:14:39;;;;;;;;;;;;;;;13.11;100.00;95929.41;4972874;28;19947;-82
2023/05/15 11:17:06;;;;;;;;;;;;;;;12.99;100.00;95931.47;4963282;28;19961;-82
2023/05/15 11:19:48;;;;;;;;;;;;;;;13.06;100.00;95924.75;4979401;28;19965;-82
2023/05/15 11:22:20;;;;;;;;;;;;;;;13.13;100.00;95929.97;4959075;28;19972;-82
2023/05/15 11:24:48;;;;;;;;;;;;;;;13.05;100.00;95925.84;4975151;28;19946;-83
2023/05/15 11:27:17;;;;;;;;;;;;;;;13.15;100.00;95922.44;4970229;28;19950;-81
2023/05/15 11:29:59;;;;;;;;;;;;;;;13.25;100.00;95917.94;4976207;28;19962;-81
2023/05/15 11:32:32;;;;;;;;;;;;;;;13.38;100.00;95916.69;4971510;28;20061;-80
2023/05/15 11:35:00;;;;;;;;;;;;;;;13.57;100.00;95917.13;4959189;28;20029;-82
2023/05/15 11:37:28;;;;;;;;;;;;;;;13.53;100.00;95911.38;4972029;28;19951;-82
2023/05/15 11:39:55;;;;;;;;;;;;;;;13.58;100.00;95908.72;4964777;28;19953;-83
2023/05/15 11:42:21;;;;;;;;;;;;;;;13.76;100.00;95914.81;4970198;28;19952;-82
2023/05/15 11:44:49;;;;;;;;;;;;;;;13.86;100.00;95909.47;4967986;28;19953;-82
2023/05/15 11:47:16;;;;;;;;;;;;;;;13.88;100.00;95908.09;4968049;28;19958;-82
2023/05/15 11:49:42;;;;;;;;;;;;;;;13.96;100.00;95910.31;4967565;28;20003;-82
2023/05/15 11:52:09;;;;;;;;;;;;;;;14.11;100.00;95912.34;4968111;28;19955;-82
2023/05/15 11:54:37;;;;;;;;;;;;;;;14.30;100.00;95915.41;4983500;28;19970;-83
2023/05/15 11:57:07;;;;;;;;;;;;;;;14.39;100.00;95913.84;4981067;28;19957;-83
2023/05/15 11:59:35;;;;;;;;;;;;;;;14.42;100.00;95913.31;4973386;28;20013;-83
2023/05/15 12:02:01;;;;;;;;;;;;;;;14.18;100.00;95910.19;4973616;28;19950;-82
2023/05/15 12:04:28;;;;;;;;;;;;;;;13.90;100.00;95913.28;4972220;28;19947;-82
2023/05/15 12:06:55;;;;;;;;;;;;;;;13.73;100.00;95920.75;4972865;28;19947;-82
2023/05/15 12:09:26;;;;;;;;;;;;;;;13.71;100.00;95912.88;4967411;28;19958;-82
2023/05/15 12:11:54;;;;;;;;;;;;;;;13.87;100.00;95906.47;4969451;28;19964;-83
2023/05/15 12:14:26;;;;;;;;;;;;;;;13.77;100.00;95905.59;4970111;28;19951;-82
2023/05/15 12:16:53;;;;;;;;;;;;;;;13.85;100.00;95913.25;4965601;28;20006;-82
2023/05/15 12:19:24;;;;;;;;;;;;;;;14.03;100.00;95902.75;4970233;28;19971;-82
2023/05/15 12:21:51;;;;;;;;;;;;;;;14.16;100.00;95912.34;4982653;28;19942;-83
2023/05/15 12:24:19;;;;;;;;;;;;;;;14.28;100.00;95904.81;4971100;28;19953;-83
2023/05/15 12:26:47;;;;;;;;;;;;;;;14.37;100.00;95905.94;4979547;28;20027;-83
2023/05/15 12:29:15;;;;;;;;;;;;;;;14.43;100.00;95908.72;4970445;28;19997;-82
2023/05/15 12:31:42;;;;;;;;;;;;;;;14.49;100.00;95903.03;4965218;28;19963;-83
2023/05/15 12:34:10;;;;;;;;;;;;;;;14.52;100.00;95905.22;4972010;28;19948;-82
2023/05/15 12:36:37;;;;;;;;;;;;;;;14.49;100.00;95907.66;4979344;28;19949;-82
2023/05/15 12:39:05;;;;;;;;;;;;;;;14.53;100.00;95903.31;4971754;28;19972;-82
2023/05/15 12:41:32;;;;;;;;;;;;;;;14.66;100.00;95902.81;4969324;28;19951;-82